createdAt,value
2017-12-11T00:01:00.411Z,0
2017-12-11T00:02:09.215Z,0
2017-12-11T00:03:18.009Z,0
2017-12-11T00:04:26.806Z,0
2017-12-11T00:05:35.870Z,0
2017-12-11T00:06:44.400Z,0
2017-12-11T00:07:53.732Z,0
2017-12-11T00:09:02.588Z,0
2017-12-11T00:10:11.655Z,0
2017-12-11T00:11:20.721Z,0
2017-12-11T00:12:29.252Z,0
2017-12-11T00:13:37.785Z,0
2017-12-11T00:14:46.317Z,0
2017-12-11T00:15:55.114Z,0
2017-12-11T00:17:03.916Z,0
2017-12-11T00:18:12.445Z,0
2017-12-11T00:19:21.243Z,0
2017-12-11T00:20:30.306Z,0
2017-12-11T00:21:39.369Z,0
2017-12-11T00:22:48.168Z,0
2017-12-11T00:23:57.234Z,0
2017-12-11T00:25:06.037Z,0
2017-12-11T00:26:14.843Z,0
2017-12-11T00:27:23.906Z,0
2017-12-11T00:28:32.965Z,0
2017-12-11T00:29:41.758Z,0
2017-12-11T00:30:50.293Z,0
2017-12-11T00:31:59.093Z,0
2017-12-11T00:33:07.627Z,0
2017-12-11T00:34:16.431Z,0
2017-12-11T00:35:25.494Z,0
2017-12-11T00:36:34.563Z,0
2017-12-11T00:37:43.358Z,0
2017-12-11T00:38:52.418Z,0
2017-12-11T00:40:00.947Z,0
2017-12-11T00:41:09.478Z,0
2017-12-11T00:42:18.017Z,0
2017-12-11T00:43:26.813Z,0
2017-12-11T00:44:35.342Z,0
2017-12-11T00:45:44.682Z,0
2017-12-11T00:46:53.764Z,0
2017-12-11T00:48:03.151Z,0
2017-12-11T00:49:11.948Z,0
2017-12-11T00:50:20.751Z,0
2017-12-11T00:51:29.287Z,0
2017-12-11T00:52:38.128Z,0
2017-12-11T00:53:47.197Z,0
2017-12-11T00:54:56.287Z,0
2017-12-11T00:56:05.224Z,0
2017-12-11T00:57:14.330Z,0
2017-12-11T00:58:22.859Z,0
2017-12-11T00:59:31.656Z,0
2017-12-11T01:00:40.452Z,0
2017-12-11T01:01:49.247Z,0
2017-12-11T01:02:58.054Z,0
2017-12-11T01:04:06.855Z,0
2017-12-11T01:05:15.386Z,0
2017-12-11T01:06:24.185Z,0
2017-12-11T01:07:32.982Z,0
2017-12-11T01:08:41.778Z,0
2017-12-11T01:09:50.309Z,0
2017-12-11T01:10:59.103Z,0
2017-12-11T01:12:08.165Z,0
2017-12-11T01:13:16.961Z,0
2017-12-11T01:14:26.026Z,0
2017-12-11T01:15:34.823Z,0
2017-12-11T01:16:43.890Z,0
2017-12-11T01:17:52.690Z,0
2017-12-11T01:19:01.220Z,0
2017-12-11T01:20:09.748Z,0
2017-12-11T01:21:18.544Z,0
2017-12-11T01:22:28.139Z,0
2017-12-11T01:23:36.670Z,0
2017-12-11T01:24:45.736Z,0
2017-12-11T01:25:54.617Z,0
2017-12-11T01:27:03.416Z,0
2017-12-11T01:28:12.213Z,0
2017-12-11T01:29:20.747Z,0
2017-12-11T01:30:29.543Z,0
2017-12-11T01:31:38.618Z,0
2017-12-11T01:32:47.161Z,0
2017-12-11T01:33:55.690Z,0
2017-12-11T01:35:04.755Z,0
2017-12-11T01:36:13.550Z,0
2017-12-11T01:37:22.351Z,0
2017-12-11T01:38:31.417Z,0
2017-12-11T01:39:40.216Z,0
2017-12-11T01:40:49.279Z,0
2017-12-11T01:41:58.077Z,0
2017-12-11T01:43:07.148Z,0
2017-12-11T01:44:15.947Z,0
2017-12-11T01:45:24.478Z,0
2017-12-11T01:46:33.007Z,0
2017-12-11T01:47:41.535Z,0
2017-12-11T01:48:50.599Z,0
2017-12-11T01:49:59.396Z,0
2017-12-11T01:51:07.924Z,0
2017-12-11T01:52:16.454Z,0
2017-12-11T01:53:24.982Z,0
2017-12-11T01:54:33.512Z,0
2017-12-11T01:55:42.578Z,0
2017-12-11T01:56:51.372Z,0
2017-12-11T01:57:59.905Z,0
2017-12-11T01:59:08.973Z,0
2017-12-11T02:00:17.765Z,0
2017-12-11T02:01:26.563Z,0
2017-12-11T02:02:35.630Z,0
2017-12-11T02:03:44.425Z,0
2017-12-11T02:04:53.221Z,0
2017-12-11T02:06:02.020Z,0
2017-12-11T02:07:10.817Z,0
2017-12-11T02:08:19.344Z,0
2017-12-11T02:09:28.414Z,0
2017-12-11T02:10:36.943Z,0
2017-12-11T02:11:46.006Z,0
2017-12-11T02:12:55.069Z,0
2017-12-11T02:14:03.892Z,0
2017-12-11T02:15:12.423Z,0
2017-12-11T02:16:21.221Z,0
2017-12-11T02:17:30.023Z,0
2017-12-11T02:18:38.819Z,0
2017-12-11T02:19:47.616Z,0
2017-12-11T02:20:56.418Z,0
2017-12-11T02:22:05.541Z,0
2017-12-11T02:23:14.337Z,0
2017-12-11T02:24:22.869Z,0
2017-12-11T02:25:31.662Z,0
2017-12-11T02:26:40.462Z,0
2017-12-11T02:27:49.531Z,0
2017-12-11T02:28:58.319Z,0
2017-12-11T02:30:06.863Z,0
2017-12-11T02:31:15.663Z,0
2017-12-11T02:32:24.193Z,0
2017-12-11T02:33:32.721Z,0
2017-12-11T02:34:41.514Z,0
2017-12-11T02:35:50.045Z,0
2017-12-11T02:36:58.845Z,0
2017-12-11T02:38:08.191Z,0
2017-12-11T02:39:16.988Z,0
2017-12-11T02:40:26.055Z,0
2017-12-11T02:41:35.123Z,0
2017-12-11T02:42:43.919Z,0
2017-12-11T02:43:52.448Z,0
2017-12-11T02:45:00.980Z,0
2017-12-11T02:46:10.045Z,0
2017-12-11T02:47:18.580Z,0
2017-12-11T02:48:27.113Z,0
2017-12-11T02:49:35.906Z,0
2017-12-11T02:50:44.703Z,0
2017-12-11T02:51:53.526Z,0
2017-12-11T02:53:02.320Z,0
2017-12-11T02:54:11.118Z,0
2017-12-11T02:55:19.647Z,0
2017-12-11T02:56:28.709Z,0
2017-12-11T02:57:37.244Z,0
2017-12-11T02:58:46.034Z,0
2017-12-11T02:59:54.828Z,0
2017-12-11T03:01:03.684Z,0
2017-12-11T03:02:12.481Z,0
2017-12-11T03:03:21.490Z,0
2017-12-11T03:04:30.288Z,0
2017-12-11T03:05:39.087Z,0
2017-12-11T03:06:47.889Z,0
2017-12-11T03:07:56.955Z,0
2017-12-11T03:09:06.016Z,0
2017-12-11T03:10:14.812Z,0
2017-12-11T03:11:23.344Z,0
2017-12-11T03:12:32.140Z,0
2017-12-11T03:13:41.203Z,0
2017-12-11T03:14:50.006Z,0
2017-12-11T03:15:59.081Z,0
2017-12-11T03:17:08.150Z,0
2017-12-11T03:18:16.945Z,0
2017-12-11T03:19:25.740Z,0
2017-12-11T03:20:34.271Z,0
2017-12-11T03:21:43.070Z,0
2017-12-11T03:22:51.602Z,0
2017-12-11T03:24:00.402Z,0
2017-12-11T03:25:09.466Z,0
2017-12-11T03:26:18.269Z,0
2017-12-11T03:27:27.066Z,0
2017-12-11T03:28:35.861Z,0
2017-12-11T03:29:44.657Z,0
2017-12-11T03:30:53.469Z,0
2017-12-11T03:32:02.263Z,0
2017-12-11T03:33:11.332Z,0
2017-12-11T03:34:19.861Z,0
2017-12-11T03:35:28.922Z,0
2017-12-11T03:36:37.719Z,0
2017-12-11T03:37:46.247Z,0
2017-12-11T03:38:54.775Z,0
2017-12-11T03:40:03.573Z,0
2017-12-11T03:41:12.099Z,0
2017-12-11T03:42:20.898Z,0
2017-12-11T03:43:29.432Z,0
2017-12-11T03:44:38.230Z,0
2017-12-11T03:45:47.025Z,0
2017-12-11T03:46:56.094Z,0
2017-12-11T03:48:04.884Z,0
2017-12-11T03:49:14.079Z,0
2017-12-11T03:50:22.882Z,0
2017-12-11T03:51:31.678Z,0
2017-12-11T03:52:40.213Z,0
2017-12-11T03:53:48.743Z,0
2017-12-11T03:54:57.271Z,0
2017-12-11T03:56:05.803Z,0
2017-12-11T03:57:14.600Z,0
2017-12-11T03:58:23.130Z,0
2017-12-11T03:59:31.923Z,0
2017-12-11T04:00:40.453Z,0
2017-12-11T04:01:49.520Z,0
2017-12-11T04:02:58.316Z,0
2017-12-11T04:04:07.110Z,0
2017-12-11T04:05:15.639Z,0
2017-12-11T04:06:24.434Z,0
2017-12-11T04:07:33.228Z,0
2017-12-11T04:08:42.024Z,0
2017-12-11T04:09:50.553Z,0
2017-12-11T04:10:59.618Z,0
2017-12-11T04:12:08.415Z,0
2017-12-11T04:13:16.944Z,0
2017-12-11T04:14:25.736Z,0
2017-12-11T04:15:34.542Z,0
2017-12-11T04:16:43.073Z,0
2017-12-11T04:17:51.607Z,0
2017-12-11T04:19:00.398Z,0
2017-12-11T04:20:08.926Z,0
2017-12-11T04:21:17.454Z,0
2017-12-11T04:22:26.250Z,0
2017-12-11T04:23:35.056Z,0
2017-12-11T04:24:44.174Z,0
2017-12-11T04:25:53.238Z,0
2017-12-11T04:27:02.568Z,0
2017-12-11T04:28:11.367Z,0
2017-12-11T04:29:19.894Z,0
2017-12-11T04:30:28.697Z,0
2017-12-11T04:31:37.845Z,0
2017-12-11T04:32:46.912Z,0
2017-12-11T04:33:55.441Z,0
2017-12-11T04:35:03.969Z,0
2017-12-11T04:36:12.767Z,0
2017-12-11T04:37:21.565Z,0
2017-12-11T04:38:30.363Z,0
2017-12-11T04:39:39.713Z,0
2017-12-11T04:40:48.516Z,0
2017-12-11T04:41:57.045Z,0
2017-12-11T04:43:05.842Z,0
2017-12-11T04:44:14.638Z,0
2017-12-11T04:45:23.706Z,0
2017-12-11T04:46:32.233Z,0
2017-12-11T04:47:40.765Z,0
2017-12-11T04:48:49.297Z,0
2017-12-11T04:49:58.090Z,0
2017-12-11T04:51:06.661Z,0
2017-12-11T04:52:15.194Z,0
2017-12-11T04:53:23.992Z,0
2017-12-11T04:54:32.518Z,0
2017-12-11T04:55:41.314Z,0
2017-12-11T04:56:50.114Z,0
2017-12-11T04:57:58.637Z,0
2017-12-11T04:59:07.434Z,0
2017-12-11T05:00:16.231Z,0
2017-12-11T05:01:24.763Z,0
2017-12-11T05:02:33.558Z,0
2017-12-11T05:03:42.087Z,0
2017-12-11T05:04:50.881Z,0
2017-12-11T05:05:59.413Z,0
2017-12-11T05:07:08.206Z,0
2017-12-11T05:08:17.270Z,0
2017-12-11T05:09:26.065Z,0
2017-12-11T05:10:34.864Z,0
2017-12-11T05:11:43.927Z,0
2017-12-11T05:12:52.739Z,0
2017-12-11T05:14:01.806Z,0
2017-12-11T05:15:10.337Z,0
2017-12-11T05:16:19.138Z,0
2017-12-11T05:17:27.667Z,0
2017-12-11T05:18:36.730Z,0
2017-12-11T05:19:45.260Z,0
2017-12-11T05:20:54.322Z,0
2017-12-11T05:22:03.119Z,0
2017-12-11T05:23:11.920Z,0
2017-12-11T05:24:20.715Z,0
2017-12-11T05:25:29.512Z,0
2017-12-11T05:26:38.307Z,0
2017-12-11T05:27:47.370Z,0
2017-12-11T05:28:56.169Z,0
2017-12-11T05:30:04.966Z,0
2017-12-11T05:31:13.756Z,0
2017-12-11T05:32:22.286Z,0
2017-12-11T05:33:30.814Z,0
2017-12-11T05:34:39.342Z,0
2017-12-11T05:35:48.139Z,0
2017-12-11T05:36:56.936Z,0
2017-12-11T05:38:05.730Z,0
2017-12-11T05:39:14.544Z,0
2017-12-11T05:40:23.603Z,0
2017-12-11T05:41:32.398Z,0
2017-12-11T05:42:41.199Z,0
2017-12-11T05:43:49.734Z,0
2017-12-11T05:44:58.535Z,0
2017-12-11T05:46:07.326Z,0
2017-12-11T05:47:15.855Z,0
2017-12-11T05:48:24.648Z,0
2017-12-11T05:49:33.177Z,0
2017-12-11T05:50:41.703Z,0
2017-12-11T05:51:50.233Z,0
2017-12-11T05:52:59.026Z,0
2017-12-11T05:54:07.821Z,0
2017-12-11T05:55:16.352Z,0
2017-12-11T05:56:25.149Z,0
2017-12-11T05:57:33.942Z,0
2017-12-11T05:58:42.738Z,0
2017-12-11T05:59:51.533Z,0
2017-12-11T06:01:00.330Z,0
2017-12-11T06:02:09.407Z,0
2017-12-11T06:03:17.936Z,0
2017-12-11T06:04:26.732Z,0
2017-12-11T06:05:35.525Z,0
2017-12-11T06:06:44.054Z,0
2017-12-11T06:07:52.871Z,0
2017-12-11T06:09:01.381Z,0
2017-12-11T06:10:09.913Z,0
2017-12-11T06:11:18.976Z,0
2017-12-11T06:12:27.774Z,0
2017-12-11T06:13:36.303Z,0
2017-12-11T06:14:45.101Z,0
2017-12-11T06:15:53.900Z,0
2017-12-11T06:17:02.695Z,0
2017-12-11T06:18:11.486Z,0
2017-12-11T06:19:20.283Z,0
2017-12-11T06:20:28.811Z,0
2017-12-11T06:21:37.608Z,0
2017-12-11T06:22:46.405Z,0
2017-12-11T06:23:55.737Z,0
2017-12-11T06:25:04.265Z,0
2017-12-11T06:26:13.331Z,0
2017-12-11T06:27:22.127Z,0
2017-12-11T06:28:30.654Z,0
2017-12-11T06:29:39.448Z,0
2017-12-11T06:30:47.979Z,0
2017-12-11T06:31:56.778Z,0
2017-12-11T06:33:05.307Z,0
2017-12-11T06:34:14.107Z,0
2017-12-11T06:35:22.902Z,0
2017-12-11T06:36:31.977Z,0
2017-12-11T06:37:41.042Z,0
2017-12-11T06:38:49.580Z,0
2017-12-11T06:39:58.366Z,0
2017-12-11T06:41:06.913Z,0
2017-12-11T06:42:15.709Z,0
2017-12-11T06:43:24.234Z,0
2017-12-11T06:44:32.766Z,0
2017-12-11T06:45:41.295Z,0
2017-12-11T06:46:49.822Z,0
2017-12-11T06:47:58.352Z,0
2017-12-11T06:49:06.881Z,0
2017-12-11T06:50:15.946Z,0
2017-12-11T06:51:24.488Z,0
2017-12-11T06:52:33.006Z,0
2017-12-11T06:53:42.069Z,0
2017-12-11T06:54:50.596Z,0
2017-12-11T06:55:59.123Z,0
2017-12-11T06:57:08.193Z,0
2017-12-11T06:58:17.524Z,0
2017-12-11T06:59:26.322Z,0
2017-12-11T07:00:35.381Z,0
2017-12-11T07:01:44.175Z,0
2017-12-11T07:02:53.503Z,0
2017-12-11T07:04:02.033Z,0
2017-12-11T07:05:11.368Z,0
2017-12-11T07:06:20.704Z,0
2017-12-11T07:07:29.236Z,0
2017-12-11T07:08:37.776Z,0
2017-12-11T07:09:46.572Z,0
2017-12-11T07:10:55.369Z,0
2017-12-11T07:12:03.903Z,0
2017-12-11T07:13:12.698Z,0
2017-12-11T07:14:21.497Z,0
2017-12-11T07:15:30.563Z,0
2017-12-11T07:16:39.902Z,0
2017-12-11T07:17:48.429Z,0
2017-12-11T07:18:57.227Z,0
2017-12-11T07:20:06.292Z,0
2017-12-11T07:21:15.356Z,0
2017-12-11T07:22:24.156Z,0
2017-12-11T07:23:33.223Z,0
2017-12-11T07:24:42.018Z,0
2017-12-11T07:25:50.816Z,0
2017-12-11T07:26:59.614Z,0
2017-12-11T07:28:08.679Z,0
2017-12-11T07:29:17.209Z,0
2017-12-11T07:30:25.742Z,0
2017-12-11T07:31:34.298Z,0
2017-12-11T07:32:43.360Z,0
2017-12-11T07:33:52.156Z,0
2017-12-11T07:35:01.029Z,0
2017-12-11T07:36:10.357Z,0
2017-12-11T07:37:19.150Z,0
2017-12-11T07:38:27.944Z,0
2017-12-11T07:39:36.738Z,0
2017-12-11T07:40:46.452Z,0
2017-12-11T07:41:55.572Z,0
2017-12-11T07:43:05.022Z,0
2017-12-11T07:44:14.084Z,0
2017-12-11T07:45:22.615Z,5
2017-12-11T07:46:31.412Z,5
2017-12-11T07:47:40.513Z,5
2017-12-11T07:48:49.090Z,5
2017-12-11T07:49:57.890Z,5
2017-12-11T07:51:06.421Z,5
2017-12-11T07:52:15.217Z,5
2017-12-11T07:53:24.024Z,5
2017-12-11T07:54:32.843Z,5
2017-12-11T07:55:42.188Z,5
2017-12-11T07:56:50.731Z,5
2017-12-11T07:57:59.926Z,5
2017-12-11T07:59:09.036Z,5
2017-12-11T08:00:17.846Z,5
2017-12-11T08:01:26.388Z,5
2017-12-11T08:02:35.350Z,5
2017-12-11T08:03:44.470Z,5
2017-12-11T08:04:53.016Z,5
2017-12-11T08:06:01.550Z,5
2017-12-11T08:07:10.616Z,5
2017-12-11T08:08:19.418Z,5
2017-12-11T08:09:27.957Z,5
2017-12-11T08:10:36.766Z,5
2017-12-11T08:11:45.324Z,5
2017-12-11T08:12:53.855Z,5
2017-12-11T08:14:02.658Z,5
2017-12-11T08:15:11.723Z,5
2017-12-11T08:16:20.253Z,5
2017-12-11T08:17:28.782Z,5
2017-12-11T08:18:37.845Z,5
2017-12-11T08:19:46.908Z,10
2017-12-11T08:20:55.703Z,5
2017-12-11T08:22:04.507Z,5
2017-12-11T08:23:13.571Z,5
2017-12-11T08:24:22.370Z,5
2017-12-11T08:25:31.433Z,10
2017-12-11T08:26:40.493Z,10
2017-12-11T08:27:49.565Z,10
2017-12-11T08:28:58.631Z,10
2017-12-11T08:30:07.435Z,10
2017-12-11T08:31:16.227Z,10
2017-12-11T08:32:24.761Z,10
2017-12-11T08:33:33.550Z,15
2017-12-11T08:34:42.362Z,15
2017-12-11T08:35:51.162Z,15
2017-12-11T08:36:59.967Z,15
2017-12-11T08:38:08.491Z,15
2017-12-11T08:39:17.289Z,15
2017-12-11T08:40:26.621Z,15
2017-12-11T08:41:35.419Z,15
2017-12-11T08:42:44.483Z,15
2017-12-11T08:43:53.745Z,15
2017-12-11T08:45:02.810Z,15
2017-12-11T08:46:11.348Z,15
2017-12-11T08:47:20.151Z,15
2017-12-11T08:48:28.684Z,15
2017-12-11T08:49:37.477Z,15
2017-12-11T08:50:46.009Z,15
2017-12-11T08:51:54.807Z,15
2017-12-11T08:53:04.136Z,15
2017-12-11T08:54:13.198Z,15
2017-12-11T08:55:21.736Z,15
2017-12-11T08:56:30.817Z,15
2017-12-11T08:57:39.887Z,15
2017-12-11T08:58:48.683Z,15
2017-12-11T08:59:57.478Z,15
2017-12-11T09:01:06.274Z,20
2017-12-11T09:02:14.805Z,20
2017-12-11T09:03:23.867Z,20
2017-12-11T09:04:32.394Z,20
2017-12-11T09:05:41.469Z,20
2017-12-11T09:06:50.530Z,20
2017-12-11T09:07:59.058Z,20
2017-12-11T09:09:07.861Z,20
2017-12-11T09:10:16.660Z,20
2017-12-11T09:11:25.247Z,20
2017-12-11T09:12:34.602Z,25
2017-12-11T09:13:43.667Z,25
2017-12-11T09:14:52.790Z,25
2017-12-11T09:16:01.595Z,30
2017-12-11T09:17:10.129Z,30
2017-12-11T09:18:19.192Z,30
2017-12-11T09:19:27.722Z,30
2017-12-11T09:20:36.256Z,30
2017-12-11T09:21:44.787Z,30
2017-12-11T09:22:53.590Z,30
2017-12-11T09:24:02.126Z,30
2017-12-11T09:25:10.925Z,30
2017-12-11T09:26:19.727Z,30
2017-12-11T09:27:28.525Z,25
2017-12-11T09:28:37.586Z,25
2017-12-11T09:29:46.117Z,30
2017-12-11T09:30:55.445Z,30
2017-12-11T09:32:04.241Z,25
2017-12-11T09:33:13.036Z,25
2017-12-11T09:34:21.842Z,25
2017-12-11T09:35:30.671Z,25
2017-12-11T09:36:39.473Z,30
2017-12-11T09:37:48.001Z,30
2017-12-11T09:38:56.530Z,30
2017-12-11T09:40:05.324Z,30
2017-12-11T09:41:14.119Z,30
2017-12-11T09:42:22.650Z,30
2017-12-11T09:43:31.450Z,30
2017-12-11T09:44:40.248Z,30
2017-12-11T09:45:48.780Z,30
2017-12-11T09:46:57.309Z,30
2017-12-11T09:48:06.372Z,30
2017-12-11T09:49:15.497Z,30
2017-12-11T09:50:24.562Z,30
2017-12-11T09:51:33.098Z,30
2017-12-11T09:52:41.898Z,30
2017-12-11T09:53:50.691Z,30
2017-12-11T09:54:59.487Z,30
2017-12-11T09:56:08.286Z,30
2017-12-11T09:57:17.083Z,30
2017-12-11T09:58:25.615Z,30
2017-12-11T09:59:34.150Z,30
2017-12-11T10:00:42.952Z,30
2017-12-11T10:01:51.750Z,30
2017-12-11T10:03:00.282Z,30
2017-12-11T10:04:09.087Z,30
2017-12-11T10:05:17.934Z,30
2017-12-11T10:06:26.730Z,30
2017-12-11T10:07:35.532Z,30
2017-12-11T10:08:44.602Z,25
2017-12-11T10:09:53.134Z,25
2017-12-11T10:11:01.881Z,25
2017-12-11T10:12:10.684Z,25
2017-12-11T10:13:19.216Z,20
2017-12-11T10:14:28.012Z,25
2017-12-11T10:15:37.081Z,20
2017-12-11T10:16:45.878Z,20
2017-12-11T10:17:54.678Z,20
2017-12-11T10:19:03.747Z,20
2017-12-11T10:20:12.542Z,20
2017-12-11T10:21:21.339Z,20
2017-12-11T10:22:29.924Z,20
2017-12-11T10:23:38.986Z,20
2017-12-11T10:24:47.516Z,20
2017-12-11T10:25:56.314Z,20
2017-12-11T10:27:04.843Z,20
2017-12-11T10:28:13.910Z,20
2017-12-11T10:29:22.443Z,20
2017-12-11T10:30:30.975Z,20
2017-12-11T10:31:39.778Z,20
2017-12-11T10:32:48.322Z,20
2017-12-11T10:33:57.387Z,20
2017-12-11T10:35:05.916Z,20
2017-12-11T10:36:15.248Z,20
2017-12-11T10:37:24.613Z,20
2017-12-11T10:38:33.215Z,20
2017-12-11T10:39:42.015Z,20
2017-12-11T10:40:50.822Z,20
2017-12-11T10:41:59.618Z,15
2017-12-11T10:43:08.682Z,15
2017-12-11T10:44:17.481Z,15
2017-12-11T10:45:26.278Z,15
2017-12-11T10:46:35.076Z,15
2017-12-11T10:47:43.611Z,15
2017-12-11T10:48:52.141Z,15
2017-12-11T10:50:01.207Z,15
2017-12-11T10:51:09.736Z,15
2017-12-11T10:52:19.094Z,15
2017-12-11T10:53:27.781Z,15
2017-12-11T10:54:36.852Z,15
2017-12-11T10:55:45.649Z,15
2017-12-11T10:56:54.175Z,15
2017-12-11T10:58:03.365Z,15
2017-12-11T10:59:12.251Z,15
2017-12-11T11:00:20.780Z,15
2017-12-11T11:01:29.309Z,15
2017-12-11T11:02:37.836Z,20
2017-12-11T11:03:46.637Z,20
2017-12-11T11:04:55.434Z,15
2017-12-11T11:06:03.973Z,15
2017-12-11T11:07:12.777Z,20
2017-12-11T11:08:21.311Z,20
2017-12-11T11:09:30.636Z,20
2017-12-11T11:10:39.706Z,20
2017-12-11T11:11:48.769Z,20
2017-12-11T11:12:57.830Z,25
2017-12-11T11:14:06.362Z,25
2017-12-11T11:15:15.164Z,25
2017-12-11T11:16:23.692Z,25
2017-12-11T11:17:32.493Z,30
2017-12-11T11:18:41.562Z,25
2017-12-11T11:19:50.624Z,25
2017-12-11T11:20:59.423Z,25
2017-12-11T11:22:08.492Z,30
2017-12-11T11:23:17.027Z,30
2017-12-11T11:24:25.896Z,30
2017-12-11T11:25:34.423Z,25
2017-12-11T11:26:43.218Z,25
2017-12-11T11:27:52.281Z,25
2017-12-11T11:29:00.810Z,30
2017-12-11T11:30:09.338Z,30
2017-12-11T11:31:17.862Z,30
2017-12-11T11:32:26.663Z,35
2017-12-11T11:33:35.725Z,35
2017-12-11T11:34:44.798Z,40
2017-12-11T11:35:53.333Z,45
2017-12-11T11:37:02.397Z,45
2017-12-11T11:38:11.202Z,45
2017-12-11T11:39:19.734Z,50
2017-12-11T11:40:28.797Z,50
2017-12-11T11:41:37.874Z,45
2017-12-11T11:42:46.404Z,45
2017-12-11T11:43:55.471Z,45
2017-12-11T11:45:04.015Z,40
2017-12-11T11:46:12.813Z,40
2017-12-11T11:47:21.608Z,40
2017-12-11T11:48:30.136Z,40
2017-12-11T11:49:38.672Z,40
2017-12-11T11:50:47.470Z,40
2017-12-11T11:51:56.536Z,40
2017-12-11T11:53:05.331Z,40
2017-12-11T11:54:13.873Z,45
2017-12-11T11:55:22.675Z,45
2017-12-11T11:56:31.221Z,50
2017-12-11T11:57:40.026Z,50
2017-12-11T11:58:49.366Z,50
2017-12-11T11:59:57.908Z,50
2017-12-11T12:01:06.443Z,50
2017-12-11T12:02:14.989Z,45
2017-12-11T12:03:23.804Z,45
2017-12-11T12:04:32.607Z,40
2017-12-11T12:05:41.406Z,40
2017-12-11T12:06:49.935Z,35
2017-12-11T12:07:58.747Z,35
2017-12-11T12:09:07.805Z,35
2017-12-11T12:10:16.344Z,35
2017-12-11T12:11:25.403Z,35
2017-12-11T12:12:33.935Z,35
2017-12-11T12:13:42.998Z,35
2017-12-11T12:14:52.078Z,35
2017-12-11T12:16:01.146Z,35
2017-12-11T12:17:10.026Z,40
2017-12-11T12:18:19.087Z,40
2017-12-11T12:19:28.138Z,35
2017-12-11T12:20:36.670Z,30
2017-12-11T12:21:45.662Z,30
2017-12-11T12:22:54.772Z,30
2017-12-11T12:24:03.569Z,25
2017-12-11T12:25:12.501Z,25
2017-12-11T12:26:21.037Z,20
2017-12-11T12:27:29.836Z,20
2017-12-11T12:28:38.903Z,20
2017-12-11T12:29:47.697Z,20
2017-12-11T12:30:56.494Z,20
2017-12-11T12:32:05.561Z,20
2017-12-11T12:33:14.366Z,20
2017-12-11T12:34:23.165Z,20
2017-12-11T12:35:32.499Z,20
2017-12-11T12:36:41.559Z,20
2017-12-11T12:37:50.365Z,20
2017-12-11T12:38:59.442Z,20
2017-12-11T12:40:07.973Z,20
2017-12-11T12:41:16.779Z,20
2017-12-11T12:42:25.576Z,20
2017-12-11T12:43:34.140Z,20
2017-12-11T12:44:42.668Z,20
2017-12-11T12:45:51.206Z,20
2017-12-11T12:46:59.734Z,20
2017-12-11T12:48:08.612Z,20
2017-12-11T12:49:17.681Z,20
2017-12-11T12:50:26.482Z,20
2017-12-11T12:51:35.547Z,20
2017-12-11T12:52:44.355Z,20
2017-12-11T12:53:53.418Z,20
2017-12-11T12:55:02.216Z,20
2017-12-11T12:56:11.013Z,20
2017-12-11T12:57:20.346Z,20
2017-12-11T12:58:29.176Z,20
2017-12-11T12:59:37.706Z,20
2017-12-11T13:00:46.240Z,20
2017-12-11T13:01:55.041Z,20
2017-12-11T13:03:03.841Z,20
2017-12-11T13:04:12.645Z,20
2017-12-11T13:05:21.708Z,20
2017-12-11T13:06:30.509Z,20
2017-12-11T13:07:39.039Z,20
2017-12-11T13:08:47.568Z,20
2017-12-11T13:09:56.371Z,20
2017-12-11T13:11:05.471Z,25
2017-12-11T13:12:14.001Z,25
2017-12-11T13:13:22.533Z,25
2017-12-11T13:14:31.336Z,25
2017-12-11T13:15:40.137Z,25
2017-12-11T13:16:48.947Z,25
2017-12-11T13:17:57.762Z,20
2017-12-11T13:19:06.560Z,20
2017-12-11T13:20:15.356Z,15
2017-12-11T13:21:23.891Z,15
2017-12-11T13:22:32.422Z,15
2017-12-11T13:23:40.951Z,15
2017-12-11T13:24:49.748Z,15
2017-12-11T13:25:58.810Z,15
2017-12-11T13:27:07.608Z,15
2017-12-11T13:28:16.948Z,15
2017-12-11T13:29:26.017Z,15
2017-12-11T13:30:34.550Z,15
2017-12-11T13:31:43.345Z,10
2017-12-11T13:32:52.411Z,10
2017-12-11T13:34:01.205Z,10
2017-12-11T13:35:09.743Z,10
2017-12-11T13:36:18.593Z,10
2017-12-11T13:37:27.130Z,10
2017-12-11T13:38:36.190Z,10
2017-12-11T13:39:44.993Z,10
2017-12-11T13:40:53.525Z,10
2017-12-11T13:42:02.591Z,10
2017-12-11T13:43:11.952Z,10
2017-12-11T13:44:20.739Z,10
2017-12-11T13:45:29.287Z,5
2017-12-11T13:46:38.354Z,5
2017-12-11T13:47:47.210Z,5
2017-12-11T13:48:56.545Z,10
2017-12-11T13:50:05.080Z,10
2017-12-11T13:51:13.605Z,10
2017-12-11T13:52:22.667Z,10
2017-12-11T13:53:31.197Z,10
2017-12-11T13:54:39.732Z,10
2017-12-11T13:55:48.427Z,10
2017-12-11T13:56:57.225Z,10
2017-12-11T13:58:05.753Z,10
2017-12-11T13:59:14.555Z,10
2017-12-11T14:00:23.958Z,15
2017-12-11T14:01:32.492Z,15
2017-12-11T14:02:41.822Z,15
2017-12-11T14:03:50.355Z,15
2017-12-11T14:04:59.149Z,15
2017-12-11T14:06:07.946Z,15
2017-12-11T14:07:16.479Z,20
2017-12-11T14:08:25.285Z,20
2017-12-11T14:09:34.091Z,20
2017-12-11T14:10:42.620Z,15
2017-12-11T14:11:51.685Z,15
2017-12-11T14:13:00.481Z,20
2017-12-11T14:14:09.012Z,20
2017-12-11T14:15:18.082Z,20
2017-12-11T14:16:26.885Z,20
2017-12-11T14:17:35.691Z,15
2017-12-11T14:18:44.502Z,20
2017-12-11T14:19:53.300Z,15
2017-12-11T14:21:02.097Z,15
2017-12-11T14:22:10.631Z,15
2017-12-11T14:23:19.429Z,20
2017-12-11T14:24:28.231Z,20
2017-12-11T14:25:37.027Z,20
2017-12-11T14:26:45.613Z,15
2017-12-11T14:27:54.361Z,15
2017-12-11T14:29:03.163Z,15
2017-12-11T14:30:11.696Z,15
2017-12-11T14:31:20.230Z,20
2017-12-11T14:32:28.757Z,20
2017-12-11T14:33:37.288Z,15
2017-12-11T14:34:46.359Z,15
2017-12-11T14:35:55.155Z,15
2017-12-11T14:37:03.949Z,15
2017-12-11T14:38:12.747Z,15
2017-12-11T14:39:21.542Z,15
2017-12-11T14:40:30.084Z,15
2017-12-11T14:41:38.881Z,15
2017-12-11T14:42:47.413Z,15
2017-12-11T14:43:55.949Z,15
2017-12-11T14:45:04.747Z,10
2017-12-11T14:46:13.278Z,10
2017-12-11T14:47:22.342Z,10
2017-12-11T14:48:31.137Z,10
2017-12-11T14:49:39.664Z,10
2017-12-11T14:50:48.192Z,10
2017-12-11T14:51:57.260Z,10
2017-12-11T14:53:05.790Z,10
2017-12-11T14:54:14.588Z,10
2017-12-11T14:55:23.925Z,10
2017-12-11T14:56:32.725Z,10
2017-12-11T14:57:41.523Z,10
2017-12-11T14:58:50.319Z,5
2017-12-11T14:59:58.851Z,5
2017-12-11T15:01:07.650Z,5
2017-12-11T15:02:16.439Z,5
2017-12-11T15:03:25.503Z,5
2017-12-11T15:04:34.632Z,5
2017-12-11T15:05:43.429Z,5
2017-12-11T15:06:51.961Z,5
2017-12-11T15:08:00.492Z,5
2017-12-11T15:09:09.291Z,5
2017-12-11T15:10:17.823Z,5
2017-12-11T15:11:26.623Z,5
2017-12-11T15:12:35.422Z,5
2017-12-11T15:13:43.952Z,5
2017-12-11T15:14:53.014Z,0
2017-12-11T15:16:01.545Z,0
2017-12-11T15:17:10.346Z,0
2017-12-11T15:18:18.875Z,0
2017-12-11T15:19:27.403Z,0
2017-12-11T15:20:35.936Z,0
2017-12-11T15:21:45.266Z,0
2017-12-11T15:22:53.794Z,0
2017-12-11T15:24:02.592Z,0
2017-12-11T15:25:11.390Z,0
2017-12-11T15:26:20.464Z,0
2017-12-11T15:27:29.264Z,0
2017-12-11T15:28:37.795Z,0
2017-12-11T15:29:47.125Z,0
2017-12-11T15:30:56.184Z,0
2017-12-11T15:32:05.657Z,0
2017-12-11T15:33:14.453Z,0
2017-12-11T15:34:22.991Z,0
2017-12-11T15:35:31.523Z,0
2017-12-11T15:36:40.055Z,0
2017-12-11T15:37:48.596Z,0
2017-12-11T15:38:57.650Z,0
2017-12-11T15:40:06.178Z,0
2017-12-11T15:41:14.707Z,0
2017-12-11T15:42:23.237Z,0
2017-12-11T15:43:31.772Z,0
2017-12-11T15:44:40.841Z,0
2017-12-11T15:45:49.375Z,0
2017-12-11T15:46:57.903Z,0
2017-12-11T15:48:06.440Z,0
2017-12-11T15:49:15.542Z,0
2017-12-11T15:50:24.071Z,0
2017-12-11T15:51:32.869Z,0
2017-12-11T15:52:41.397Z,0
2017-12-11T15:53:50.192Z,0
2017-12-11T15:54:58.992Z,0
2017-12-11T15:56:07.521Z,0
2017-12-11T15:57:16.318Z,0
2017-12-11T15:58:25.113Z,0
2017-12-11T15:59:33.643Z,0
2017-12-11T16:00:42.445Z,0
2017-12-11T16:01:50.973Z,0
2017-12-11T16:03:00.039Z,0
2017-12-11T16:04:08.834Z,0
2017-12-11T16:05:17.365Z,0
2017-12-11T16:06:25.896Z,0
2017-12-11T16:07:34.693Z,0
2017-12-11T16:08:43.221Z,0
2017-12-11T16:09:51.753Z,0
2017-12-11T16:11:00.283Z,0
2017-12-11T16:12:08.814Z,0
2017-12-11T16:13:18.144Z,0
2017-12-11T16:14:26.941Z,0
2017-12-11T16:15:36.004Z,0
2017-12-11T16:16:44.542Z,0
2017-12-11T16:17:53.331Z,0
2017-12-11T16:19:01.861Z,0
2017-12-11T16:20:11.202Z,0
2017-12-11T16:21:19.729Z,0
2017-12-11T16:22:28.524Z,0
2017-12-11T16:23:37.323Z,0
2017-12-11T16:24:46.386Z,0
2017-12-11T16:25:55.182Z,0
2017-12-11T16:27:04.249Z,0
2017-12-11T16:28:12.781Z,0
2017-12-11T16:29:21.576Z,0
2017-12-11T16:30:30.642Z,0
2017-12-11T16:31:39.437Z,0
2017-12-11T16:32:48.502Z,0
2017-12-11T16:33:57.295Z,0
2017-12-11T16:35:06.097Z,0
2017-12-11T16:36:14.896Z,0
2017-12-11T16:37:24.147Z,0
2017-12-11T16:38:32.678Z,0
2017-12-11T16:39:41.207Z,0
2017-12-11T16:40:49.739Z,0
2017-12-11T16:41:58.269Z,0
2017-12-11T16:43:06.801Z,0